Time;durP1;ratioP1;P1;durP2;ratioP2;P2;SDS_P1;SDS_P2;PMS_P1;PMS_P2;Temp;Humidity;BMP_temperature;BMP_pressure;BME280_temperature;BME280_humidity;BME280_pressure;Samples;Min_cycle;Max_cycle;Signal;HPM_P1;HPM_P2
2022/03/05 00:01:02;;;;;;;23.70;22.20;;;;;;;-141.02;92.43;83427.16;5134801;27;20275;-72
2022/03/05 00:03:29;;;;;;;24.30;22.90;;;;;;;-141.02;95.94;83469.91;5134718;27;20280;-72
2022/03/05 00:05:58;;;;;;;22.77;21.57;;;;;;;-141.02;100.00;83485.44;5134322;27;20192;-71
2022/03/05 00:08:25;;;;;;;23.90;22.60;;;;;;;-141.02;100.00;83522.34;5134335;27;20231;-72
2022/03/05 00:10:52;;;;;;;25.27;23.77;;;;;;;-141.02;100.00;83500.97;5134554;27;20228;-71
2022/03/05 00:13:19;;;;;;;21.27;20.17;;;;;;;-141.02;100.00;83512.63;5134249;27;20692;-72
2022/03/05 00:15:47;;;;;;;23.30;21.90;;;;;;;-141.02;100.00;83516.53;5134200;27;20239;-72
2022/03/05 00:18:15;;;;;;;23.13;21.73;;;;;;;-141.02;100.00;83493.22;5134483;27;20358;-69
2022/03/05 00:20:42;;;;;;;20.03;19.03;;;;;;;-141.02;100.00;83477.66;5134189;27;20291;-71
2022/03/05 00:23:11;;;;;;;24.27;22.70;;;;;;;-141.02;98.14;83512.63;5134091;27;20673;-71
2022/03/05 00:25:38;;;;;;;22.67;21.13;;;;;;;-141.02;94.00;83504.88;5134333;27;20275;-71
2022/03/05 00:28:05;;;;;;;27.00;24.70;;;;;;;-141.02;99.17;83543.72;5133966;27;20200;-69
2022/03/05 00:30:32;;;;;;;24.27;22.30;;;;;;;-141.02;99.22;83508.75;5134143;27;20698;-72
2022/03/05 00:32:59;;;;;;;23.53;22.27;;;;;;;-141.02;98.55;83493.22;5134171;27;20276;-71
2022/03/05 00:35:27;;;;;;;28.70;25.70;;;;;;;-141.02;99.46;83510.69;5134056;27;20196;-70
2022/03/05 00:37:54;;;;;;;25.40;23.43;;;;;;;-141.02;99.07;83495.16;5133644;27;20277;-71
2022/03/05 00:40:22;;;;;;;25.53;23.33;;;;;;;-141.02;99.79;83502.94;5134034;27;20223;-71
2022/03/05 00:42:49;;;;;;;27.80;25.73;;;;;;;-141.02;99.91;83469.91;5133634;27;20261;-69
2022/03/05 00:45:16;;;;;;;25.63;23.67;;;;;;;-141.02;100.00;83537.91;5133915;27;20611;-70
2022/03/05 00:47:43;;;;;;;23.73;22.03;;;;;;;-141.02;100.00;83530.13;5133561;27;20238;-71
2022/03/05 00:50:11;;;;;;;23.53;22.20;;;;;;;-141.02;100.00;83473.78;5133469;27;20235;-71
2022/03/05 00:52:38;;;;;;;25.17;23.37;;;;;;;-141.02;100.00;83539.84;5133827;27;20284;-71
2022/03/05 00:55:07;;;;;;;25.47;23.40;;;;;;;-141.02;100.00;83475.72;5133782;27;20227;-69
2022/03/05 00:57:36;;;;;;;26.53;24.63;;;;;;;-141.02;100.00;83512.63;5133050;27;20649;-70
2022/03/05 01:00:05;;;;;;;25.40;23.73;;;;;;;-141.02;99.16;83469.91;5133667;27;20220;-71
2022/03/05 01:02:32;;;;;;;23.73;22.10;;;;;;;-141.02;100.00;83450.47;5133340;27;20724;-71
2022/03/05 01:04:59;;;;;;;22.60;21.30;;;;;;;-141.02;100.00;83520.41;5133268;27;20624;-71
2022/03/05 01:07:26;;;;;;;22.63;21.03;;;;;;;-141.02;100.00;83512.63;5133291;27;20585;-71
2022/03/05 01:09:53;;;;;;;22.53;20.87;;;;;;;-141.02;100.00;83545.66;5133574;27;20280;-71
2022/03/05 01:12:21;;;;;;;22.77;21.47;;;;;;;-141.02;100.00;83508.75;5133114;27;20224;-71
2022/03/05 01:14:50;;;;;;;22.43;21.23;;;;;;;-141.02;100.00;83497.09;5133251;27;20196;-71
2022/03/05 01:17:18;;;;;;;24.47;22.87;;;;;;;-141.02;100.00;83464.06;5133105;27;20188;-70
2022/03/05 01:19:45;;;;;;;23.33;21.93;;;;;;;-141.02;100.00;83545.66;5133141;27;20200;-71
2022/03/05 01:22:12;;;;;;;21.43;20.20;;;;;;;-141.02;100.00;83526.25;5133378;27;20231;-71
2022/03/05 01:24:40;;;;;;;24.93;21.70;;;;;;;-141.02;100.00;83512.63;5133098;27;20192;-70
2022/03/05 01:27:07;;;;;;;22.10;20.70;;;;;;;-141.02;100.00;83568.97;5133375;27;20699;-71
2022/03/05 01:29:34;;;;;;;23.37;21.87;;;;;;;-141.02;100.00;83537.91;5133322;27;20226;-70
2022/03/05 01:32:03;;;;;;;21.40;20.23;;;;;;;-141.02;100.00;83555.38;5133209;28;20307;-71
2022/03/05 01:34:30;;;;;;;25.40;23.50;;;;;;;-141.02;100.00;83528.19;5133277;27;20616;-70
2022/03/05 01:36:57;;;;;;;25.93;23.90;;;;;;;-141.02;100.00;83567.03;5132699;28;20224;-70
2022/03/05 01:39:24;;;;;;;24.60;22.77;;;;;;;-141.02;100.00;83532.06;5132881;28;20246;-70
2022/03/05 01:41:54;;;;;;;23.50;21.77;;;;;;;-141.02;100.00;83528.19;5133166;28;20220;-70
2022/03/05 01:44:23;;;;;;;22.93;21.53;;;;;;;-141.02;100.00;83473.78;5133730;28;20279;-69
2022/03/05 01:46:50;;;;;;;23.60;22.07;;;;;;;-141.02;100.00;83563.16;5133166;27;20732;-70
2022/03/05 01:49:19;;;;;;;21.80;20.43;;;;;;;-141.02;100.00;83547.59;5133167;27;20192;-70
2022/03/05 01:51:47;;;;;;;22.97;21.60;;;;;;;-141.02;100.00;83553.44;5132675;28;20673;-70
2022/03/05 01:54:15;;;;;;;32.57;22.77;;;;;;;-141.02;100.00;83576.75;5132724;28;20188;-70
2022/03/05 01:56:43;;;;;;;23.37;21.57;;;;;;;-141.02;100.00;83578.69;5132746;28;20283;-70
2022/03/05 01:59:12;;;;;;;24.10;22.07;;;;;;;-141.02;100.00;83557.31;5133134;27;20188;-70
2022/03/05 02:01:40;;;;;;;23.53;21.63;;;;;;;-141.02;100.00;83574.81;5132762;27;20196;-70
2022/03/05 02:04:07;;;;;;;25.77;22.53;;;;;;;-141.02;100.00;83565.09;5133000;28;20192;-71
2022/03/05 02:06:35;;;;;;;22.80;21.30;;;;;;;-141.02;100.00;83605.91;5132945;28;20188;-70
2022/03/05 02:09:03;;;;;;;22.70;21.40;;;;;;;-141.02;100.00;83574.81;5134033;27;20241;-71
2022/03/05 02:11:31;;;;;;;25.87;23.80;;;;;;;-141.02;100.00;83590.34;5136592;27;20224;-70
2022/03/05 02:13:58;;;;;;;24.83;23.03;;;;;;;-141.02;100.00;83534.00;5136904;27;20219;-70
2022/03/05 02:16:25;;;;;;;20.80;19.50;;;;;;;-141.02;100.00;83576.75;5136620;27;20245;-69
2022/03/05 02:18:55;;;;;;;22.77;21.13;;;;;;;-141.02;100.00;83530.13;5136807;27;20192;-70
2022/03/05 02:21:25;;;;;;;22.60;21.03;;;;;;;-141.02;100.00;55844.97;5136463;27;20195;-70
2022/03/05 02:23:53;;;;;;;23.73;21.70;;;;;;;-141.02;100.00;55844.97;5136442;27;20191;-71
2022/03/05 02:26:21;;;;;;;20.70;19.60;;;;;;;-141.02;100.00;55844.97;5136290;27;20201;-69
2022/03/05 02:28:48;;;;;;;23.07;21.20;;;;;;;-141.02;100.00;55844.97;5136283;27;20200;-71
2022/03/05 02:31:15;;;;;;;21.70;20.50;;;;;;;-141.02;100.00;55844.97;5136444;27;20664;-71
2022/03/05 02:33:42;;;;;;;22.13;20.67;;;;;;;-141.02;100.00;55844.97;5136163;27;20185;-70
2022/03/05 02:36:09;;;;;;;20.50;19.50;;;;;;;-141.02;100.00;55844.97;5136226;27;20232;-70
2022/03/05 02:38:38;;;;;;;22.10;20.80;;;;;;;-141.02;100.00;55844.97;5136429;27;20188;-70
2022/03/05 02:41:05;;;;;;;20.87;19.50;;;;;;;-141.02;100.00;55844.97;5136127;27;20257;-70
2022/03/05 02:43:32;;;;;;;23.73;22.30;;;;;;;-141.02;100.00;55844.97;5136277;27;20228;-70
2022/03/05 02:45:59;;;;;;;25.73;24.03;;;;;;;-141.02;100.00;55844.97;5135969;27;20196;-71
2022/03/05 02:48:26;;;;;;;25.17;23.73;;;;;;;-141.02;100.00;55844.97;5136275;27;20218;-71
2022/03/05 02:50:53;;;;;;;22.90;21.40;;;;;;;-141.02;100.00;55844.97;5136088;27;20249;-71
2022/03/05 02:53:20;;;;;;;26.97;24.17;;;;;;;-141.02;100.00;55844.97;5135886;27;20225;-70
2022/03/05 02:55:49;;;;;;;25.30;23.23;;;;;;;-141.02;100.00;55844.97;5136128;27;20220;-71
2022/03/05 02:58:16;;;;;;;25.23;23.53;;;;;;;-141.02;100.00;55844.97;5136095;27;20199;-70
2022/03/05 03:00:44;;;;;;;25.30;23.57;;;;;;;-141.02;100.00;55844.97;5135980;27;20253;-71
2022/03/05 03:03:11;;;;;;;25.50;23.77;;;;;;;-141.02;100.00;55844.97;5135971;27;20224;-70
2022/03/05 03:05:38;;;;;;;24.47;22.80;;;;;;;-141.02;100.00;55844.97;5135628;27;20197;-70
2022/03/05 03:08:05;;;;;;;26.97;24.83;;;;;;;-141.02;100.00;55844.97;5135510;27;20238;-69
2022/03/05 03:10:32;;;;;;;26.37;24.23;;;;;;;-141.02;100.00;55844.97;5135883;27;20192;-70
2022/03/05 03:13:01;;;;;;;26.30;24.27;;;;;;;-141.02;100.00;55844.97;5135652;27;20228;-70
2022/03/05 03:15:28;;;;;;;24.30;22.57;;;;;;;-141.02;100.00;55844.97;5135708;27;20279;-70
2022/03/05 03:17:55;;;;;;;25.27;23.17;;;;;;;-141.02;100.00;55844.97;5135368;27;20192;-69
2022/03/05 03:20:24;;;;;;;28.27;25.60;;;;;;;-141.02;100.00;55844.97;5134912;27;20238;-70
2022/03/05 03:22:52;;;;;;;24.20;22.77;;;;;;;-141.02;100.00;55844.97;5135655;27;20574;-69
2022/03/05 03:25:19;;;;;;;22.43;21.10;;;;;;;-141.02;100.00;55844.97;5135467;27;20192;-71
2022/03/05 03:27:47;;;;;;;21.70;20.60;;;;;;;-141.02;100.00;55844.97;5135235;27;20662;-70
2022/03/05 03:30:16;;;;;;;23.67;22.40;;;;;;;-141.02;100.00;55844.97;5135080;27;20288;-70
2022/03/05 03:32:44;;;;;;;23.70;22.20;;;;;;;-141.02;100.00;55844.97;5134994;27;20258;-71
2022/03/05 03:35:12;;;;;;;24.60;22.80;;;;;;;-141.02;100.00;55844.97;5135389;27;20204;-70
2022/03/05 03:37:40;;;;;;;24.30;22.90;;;;;;;-141.02;100.00;55844.97;5134723;27;20262;-71
2022/03/05 03:40:10;;;;;;;24.37;22.80;;;;;;;-141.02;100.00;55844.97;5135268;27;20219;-70
2022/03/05 03:42:37;;;;;;;24.23;22.57;;;;;;;-141.02;100.00;55844.97;5135177;27;20220;-70
2022/03/05 03:45:06;;;;;;;21.20;20.10;;;;;;;-141.02;100.00;55844.97;5134809;27;20785;-71
2022/03/05 03:47:35;;;;;;;21.90;20.80;;;;;;;-141.02;100.00;55844.97;5135014;27;20241;-69
2022/03/05 03:50:02;;;;;;;22.83;21.53;;;;;;;-141.02;100.00;55844.97;5135122;27;20192;-71
2022/03/05 03:52:29;;;;;;;20.70;19.70;;;;;;;-141.02;100.00;55844.97;5134979;27;20224;-71
2022/03/05 03:54:57;;;;;;;20.60;19.53;;;;;;;-141.02;100.00;55844.97;5134599;27;20197;-70
2022/03/05 03:57:24;;;;;;;20.37;19.37;;;;;;;-141.02;100.00;55844.97;5134925;27;20196;-70
2022/03/05 03:59:51;;;;;;;19.67;18.67;;;;;;;-141.02;100.00;55844.97;5134907;27;20192;-71
2022/03/05 04:02:19;;;;;;;20.90;19.80;;;;;;;-141.02;100.00;55844.97;5134564;27;20207;-70
2022/03/05 04:04:48;;;;;;;19.33;18.33;;;;;;;-141.02;100.00;55844.97;5134439;27;20287;-69
2022/03/05 04:10:00;;;;;;;19.20;18.30;;;;;;;-141.02;100.00;55844.97;5134749;27;20264;-71
2022/03/05 04:12:27;;;;;;;21.43;20.00;;;;;;;-141.02;100.00;55844.97;5134495;27;20310;-70
2022/03/05 04:14:55;;;;;;;23.17;21.27;;;;;;;-141.02;100.00;55844.97;5134581;27;20253;-71
2022/03/05 04:17:22;;;;;;;22.33;21.10;;;;;;;-141.02;100.00;55844.97;5134194;27;20677;-71
2022/03/05 04:19:50;;;;;;;23.00;21.73;;;;;;;-141.02;100.00;55844.97;5134121;27;20196;-71
2022/03/05 04:22:18;;;;;;;22.00;20.70;;;;;;;-141.02;100.00;55844.97;5134081;27;20200;-71
2022/03/05 04:24:45;;;;;;;26.63;24.33;;;;;;;-141.02;100.00;55844.97;5134349;27;20192;-70
2022/03/05 04:27:12;;;;;;;20.17;19.00;;;;;;;-141.02;100.00;55844.97;5134249;27;20228;-71
2022/03/05 04:29:39;;;;;;;21.27;19.90;;;;;;;-141.02;100.00;55844.97;5133908;27;20196;-71
2022/03/05 04:32:07;;;;;;;19.77;18.53;;;;;;;-141.02;100.00;55844.97;5133095;27;20228;-69
2022/03/05 04:34:34;;;;;;;20.80;19.63;;;;;;;-141.02;100.00;55844.97;5133798;27;20554;-70
2022/03/05 04:37:03;;;;;;;23.27;21.53;;;;;;;-141.02;100.00;55844.97;5133547;27;20224;-70
2022/03/05 04:39:30;;;;;;;21.27;19.87;;;;;;;-141.02;100.00;55844.97;5134018;27;20223;-70
2022/03/05 04:41:57;;;;;;;24.20;22.27;;;;;;;-141.02;100.00;55844.97;5133709;27;20232;-70
2022/03/05 04:44:24;;;;;;;22.93;21.47;;;;;;;-141.02;100.00;55844.97;5133681;27;20627;-70
2022/03/05 04:46:51;;;;;;;22.57;21.13;;;;;;;-141.02;100.00;55844.97;5133906;27;20192;-70
2022/03/05 04:49:18;;;;;;;21.73;20.50;;;;;;;-141.02;100.00;55844.97;5133923;27;20224;-70
2022/03/05 04:51:45;;;;;;;26.63;24.07;;;;;;;-141.02;100.00;55844.97;5133457;27;20284;-70
2022/03/05 04:54:14;;;;;;;25.00;23.07;;;;;;;-141.02;100.00;55844.97;5133905;27;20188;-70
2022/03/05 04:56:41;;;;;;;22.27;20.77;;;;;;;-141.02;100.00;55844.97;5133789;27;20235;-70
2022/03/05 04:59:08;;;;;;;22.17;20.80;;;;;;;-141.02;100.00;55844.97;5134265;27;20235;-70
2022/03/05 05:01:35;;;;;;;21.27;20.17;;;;;;;-141.02;100.00;55844.97;5133430;27;20200;-70
2022/03/05 05:04:02;;;;;;;20.47;19.47;;;;;;;-141.02;100.00;55844.97;5133693;27;20654;-70
2022/03/05 05:06:29;;;;;;;22.33;21.13;;;;;;;-141.02;100.00;55844.97;5133304;27;20741;-70
2022/03/05 05:08:56;;;;;;;20.80;19.80;;;;;;;-141.02;100.00;55844.97;5133242;27;20214;-70
2022/03/05 05:11:24;;;;;;;18.63;17.73;;;;;;;-141.02;100.00;55844.97;5133094;27;20192;-71
2022/03/05 05:13:51;;;;;;;20.00;18.90;;;;;;;-141.02;100.00;55844.97;5133260;27;20235;-70
2022/03/05 05:16:18;;;;;;;23.03;21.33;;;;;;;-141.02;100.00;55844.97;5133412;27;20192;-70
2022/03/05 05:21:26;;;;;;;22.90;21.40;;;;;;;-141.02;100.00;55844.97;5132816;27;20685;-70
2022/03/05 05:23:53;;;;;;;24.57;22.27;;;;;;;-141.02;100.00;55844.97;5133395;27;20302;-70
2022/03/05 05:26:20;;;;;;;23.03;21.23;;;;;;;-141.02;100.00;55844.97;5133323;27;20231;-70
2022/03/05 05:28:48;;;;;;;23.77;21.90;;;;;;;-141.02;100.00;55844.97;5133001;27;20257;-70
2022/03/05 05:31:15;;;;;;;23.47;21.53;;;;;;;-141.02;100.00;55844.97;5132973;27;20735;-70
2022/03/05 05:33:44;;;;;;;20.87;19.60;;;;;;;-141.02;100.00;55844.97;5133145;28;20224;-70
2022/03/05 05:36:11;;;;;;;20.47;19.20;;;;;;;-141.02;100.00;55844.97;5133012;28;20279;-70
2022/03/05 05:38:39;;;;;;;18.33;17.43;;;;;;;-141.02;100.00;55844.97;5133207;28;20188;-70
2022/03/05 05:41:06;;;;;;;18.00;17.10;;;;;;;-141.02;100.00;55844.97;5132904;28;20196;-70
2022/03/05 05:43:33;;;;;;;17.70;16.90;;;;;;;-141.02;100.00;55844.97;5135616;27;20249;-70
2022/03/05 05:46:01;;;;;;;20.23;18.93;;;;;;;-141.02;100.00;55844.97;5137495;27;20224;-70
2022/03/05 05:48:28;;;;;;;20.87;19.67;;;;;;;-141.02;100.00;55844.97;5137396;27;20245;-70
2022/03/05 05:50:55;;;;;;;20.03;18.73;;;;;;;-141.02;100.00;55844.97;5137376;27;20196;-70
2022/03/05 05:53:23;;;;;;;20.90;19.50;;;;;;;-141.02;100.00;55844.97;5137296;27;20238;-70
2022/03/05 05:55:50;;;;;;;19.97;18.87;;;;;;;-141.02;100.00;55844.97;5136959;27;20283;-70
2022/03/05 05:58:17;;;;;;;18.53;17.63;;;;;;;-141.02;100.00;55844.97;5137290;27;20192;-70
2022/03/05 06:00:44;;;;;;;20.90;19.80;;;;;;;-141.02;100.00;55844.97;5137193;27;20275;-70
2022/03/05 06:03:12;;;;;;;19.37;18.47;;;;;;;-141.02;100.00;55844.97;5137384;27;20229;-70
2022/03/05 06:05:39;;;;;;;23.07;21.37;;;;;;;-141.02;100.00;55844.97;5137927;27;20197;-71
2022/03/05 06:08:06;;;;;;;21.20;19.60;;;;;;;-141.02;100.00;55844.97;5136737;27;20193;-71
2022/03/05 06:10:34;;;;;;;20.10;19.10;;;;;;;-141.02;100.00;55844.97;5137041;27;20228;-70
2022/03/05 06:13:01;;;;;;;19.53;18.53;;;;;;;-141.02;100.00;55844.97;5136480;27;20267;-71
2022/03/05 06:15:28;;;;;;;20.10;19.10;;;;;;;-141.02;100.00;55844.97;5136850;27;20228;-70
2022/03/05 06:17:57;;;;;;;20.40;19.40;;;;;;;-141.02;100.00;55844.97;5136876;27;20596;-70
2022/03/05 06:20:26;;;;;;;19.83;18.83;;;;;;;-141.02;100.00;55844.97;5136458;27;20199;-71
2022/03/05 06:22:53;;;;;;;20.47;19.37;;;;;;;-141.02;100.00;55844.97;5136759;27;20275;-71
2022/03/05 06:25:20;;;;;;;20.57;19.47;;;;;;;-141.02;100.00;55844.97;5136396;27;20224;-71
2022/03/05 06:27:47;;;;;;;24.17;22.43;;;;;;;-141.02;100.00;55844.97;5136666;27;20189;-71
2022/03/05 06:30:14;;;;;;;18.07;17.27;;;;;;;-141.02;100.00;55844.97;5136230;27;20193;-71
2022/03/05 06:32:41;;;;;;;17.50;16.70;;;;;;;-141.02;100.00;55844.97;5136508;27;20235;-70
2022/03/05 06:35:09;;;;;;;19.70;18.60;;;;;;;-141.02;100.00;55844.97;5136508;27;20279;-71
2022/03/05 06:37:38;;;;;;;18.97;18.07;;;;;;;-141.02;100.00;55844.97;5136048;27;20250;-72
2022/03/05 06:40:06;;;;;;;22.27;20.97;;;;;;;-141.02;100.00;55844.97;5136459;27;20279;-72
2022/03/05 06:42:33;;;;;;;20.97;19.97;;;;;;;-141.02;100.00;55844.97;5136067;27;20197;-73
2022/03/05 06:45:00;;;;;;;19.90;18.90;;;;;;;-141.02;100.00;55844.97;5136119;27;20238;-72
2022/03/05 06:47:27;;;;;;;19.17;18.17;;;;;;;-141.02;100.00;55844.97;5136328;27;20224;-72
2022/03/05 06:49:54;;;;;;;19.67;18.37;;;;;;;-141.02;100.00;55844.97;5135904;27;20663;-73
2022/03/05 06:52:21;;;;;;;19.80;18.80;;;;;;;-141.02;100.00;55844.97;5135829;27;20220;-72
2022/03/05 06:54:50;;;;;;;19.90;18.67;;;;;;;-141.02;100.00;55844.97;5135316;27;20196;-72
2022/03/05 06:57:17;;;;;;;19.47;18.43;;;;;;;-141.02;100.00;55844.97;5136120;27;20242;-72
2022/03/05 06:59:44;;;;;;;19.47;18.47;;;;;;;-141.02;100.00;55844.97;5135708;27;20193;-72
2022/03/05 07:02:11;;;;;;;19.00;18.10;;;;;;;-141.02;100.00;55844.97;5136063;27;20273;-70
2022/03/05 07:04:38;;;;;;;21.40;19.47;;;;;;;-141.02;100.00;55844.97;5135967;27;20204;-72
2022/03/05 07:07:05;;;;;;;19.27;18.37;;;;;;;-141.02;100.00;55844.97;5136187;27;20196;-70
2022/03/05 07:09:32;;;;;;;21.97;20.77;;;;;;;-141.02;100.00;55844.97;5135874;27;20193;-70
2022/03/05 07:12:01;;;;;;;20.47;19.17;;;;;;;-141.02;100.00;55844.97;5135399;27;20253;-71
2022/03/05 07:14:28;;;;;;;19.27;18.37;;;;;;;-141.02;100.00;55844.97;5135764;27;20260;-72
2022/03/05 07:16:56;;;;;;;19.73;18.73;;;;;;;-141.02;100.00;55844.97;5135516;27;20227;-73
2022/03/05 07:19:23;;;;;;;20.13;18.83;;;;;;;-141.02;100.00;55844.97;5135288;27;20192;-73
2022/03/05 07:21:50;;;;;;;20.17;18.90;;;;;;;-141.02;100.00;55844.97;5135312;27;20287;-73
2022/03/05 07:24:18;;;;;;;23.07;21.23;;;;;;;-141.02;100.00;55844.97;5136407;27;20204;-72
2022/03/05 07:26:45;;;;;;;19.50;18.50;;;;;;;-141.02;100.00;55844.97;5135431;27;20222;-73
2022/03/05 07:29:13;;;;;;;19.17;18.17;;;;;;;-141.02;100.00;55844.97;5135164;27;20189;-71
2022/03/05 07:31:40;;;;;;;21.17;19.97;;;;;;;-141.02;100.00;55844.97;5135492;27;20192;-74
2022/03/05 07:34:07;;;;;;;21.70;20.30;;;;;;;-141.02;100.00;55844.97;5134953;27;20224;-73
2022/03/05 07:36:34;;;;;;;20.07;18.97;;;;;;;-141.02;100.00;55844.97;5134998;27;20273;-73
2022/03/05 07:39:01;;;;;;;20.70;19.20;;;;;;;-141.02;100.00;55844.97;5135052;27;20238;-73
2022/03/05 07:41:28;;;;;;;21.07;19.60;;;;;;;-141.02;100.00;55844.97;5135170;27;20217;-73
2022/03/05 07:43:55;;;;;;;20.37;19.13;;;;;;;-141.02;100.00;55844.97;5135227;27;20196;-73
2022/03/05 07:46:24;;;;;;;21.43;19.97;;;;;;;-141.02;100.00;55844.97;5134825;27;20192;-73
2022/03/05 07:48:51;;;;;;;19.93;18.73;;;;;;;-141.02;100.00;55844.97;5134775;27;20701;-73
2022/03/05 07:51:18;;;;;;;21.83;20.27;;;;;;;-141.02;100.00;55844.97;5134878;27;20192;-74
2022/03/05 07:53:45;;;;;;;19.30;18.20;;;;;;;-141.02;100.00;55844.97;5134641;27;20326;-73
2022/03/05 07:56:11;;;;;;;19.70;18.60;;;;;;;-141.02;100.00;55844.97;5135005;27;20343;-73
2022/03/05 07:58:39;;;;;;;20.27;19.17;;;;;;;-141.02;100.00;55844.97;5134875;27;20196;-73
2022/03/05 08:01:05;;;;;;;20.13;19.03;;;;;;;-141.02;100.00;55844.97;5134848;27;20204;-72
2022/03/05 08:03:34;;;;;;;22.07;20.87;;;;;;;-141.02;100.00;55844.97;5134552;27;20196;-72
2022/03/05 08:06:01;;;;;;;25.03;23.10;;;;;;;-141.02;100.00;55844.97;5133811;27;20253;-72
2022/03/05 08:08:28;;;;;;;19.50;18.40;;;;;;;-141.02;100.00;55844.97;5134633;27;20200;-72
2022/03/05 08:10:56;;;;;;;20.63;19.23;;;;;;;-141.02;100.00;55844.97;5134648;27;20644;-73
2022/03/05 08:13:23;;;;;;;21.53;19.93;;;;;;;-141.02;100.00;55844.97;5134519;27;20232;-73
2022/03/05 08:15:51;;;;;;;22.47;20.97;;;;;;;-141.02;100.00;55844.97;5134552;27;20197;-74
2022/03/05 08:18:19;;;;;;;20.13;19.00;;;;;;;-141.02;100.00;55844.97;5134214;27;20283;-73
2022/03/05 08:20:48;;;;;;;26.30;24.80;;;;;;;-141.02;100.00;55844.97;5134188;27;20197;-75
2022/03/05 08:23:15;;;;;;;23.50;21.07;;;;;;;-141.02;100.00;55844.97;5134040;27;20634;-73
2022/03/05 08:25:43;;;;;;;24.97;23.03;;;;;;;-141.02;100.00;55844.97;5134418;27;20200;-73
2022/03/05 08:28:10;;;;;;;20.53;18.83;;;;;;;-141.02;100.00;55844.97;5133933;27;20624;-74
2022/03/05 08:30:37;;;;;;;20.60;19.27;;;;;;;-141.02;100.00;55844.97;5133938;27;20189;-73
2022/03/05 08:33:04;;;;;;;19.00;17.80;;;;;;;-141.02;100.00;55844.97;5134188;27;20225;-73
2022/03/05 08:35:32;;;;;;;19.40;18.20;;;;;;;-141.02;100.00;55844.97;5134130;27;20200;-73
2022/03/05 08:38:00;;;;;;;19.50;18.20;;;;;;;-141.02;100.00;55844.97;5133748;27;20315;-73
2022/03/05 08:40:27;;;;;;;18.77;17.77;;;;;;;-141.02;100.00;55844.97;5134060;27;20251;-73
2022/03/05 08:42:54;;;;;;;20.80;19.60;;;;;;;-141.02;100.00;55844.97;5134039;27;20287;-73
2022/03/05 08:45:21;;;;;;;20.07;18.87;;;;;;;-141.02;100.00;55844.97;5133683;27;20193;-73
2022/03/05 08:47:48;;;;;;;22.37;20.43;;;;;;;-141.02;100.00;55844.97;5134002;27;20224;-73
2022/03/05 08:50:15;;;;;;;18.73;17.63;;;;;;;-141.02;100.00;55844.97;5133644;27;20705;-73
2022/03/05 08:52:42;;;;;;;23.23;21.70;;;;;;;-141.02;100.00;55844.97;5133739;27;20617;-73
2022/03/05 08:55:13;;;;;;;22.27;20.73;;;;;;;-141.02;100.00;55844.97;5133840;27;20196;-73
2022/03/05 08:57:41;;;;;;;19.33;18.10;;;;;;;-141.02;100.00;55844.97;5133403;27;20192;-73
2022/03/05 09:00:10;;;;;;;18.37;17.37;;;;;;;-141.02;100.00;55844.97;5133518;27;20192;-73
2022/03/05 09:02:37;;;;;;;19.07;17.87;;;;;;;-141.02;100.00;55844.97;5133725;27;20192;-73
2022/03/05 09:05:04;;;;;;;20.87;19.17;;;;;;;-141.02;100.00;55844.97;5133295;27;20193;-73
2022/03/05 09:07:32;;;;;;;19.13;18.03;;;;;;;-141.02;100.00;55844.97;5133580;27;20282;-74
2022/03/05 09:09:59;;;;;;;20.03;18.63;;;;;;;-141.02;100.00;55844.97;5133274;27;20228;-73
2022/03/05 09:12:27;;;;;;;20.30;18.70;;;;;;;-141.02;100.00;55844.97;5133520;27;20188;-73
2022/03/05 09:14:54;;;;;;;21.50;20.00;;;;;;;-141.02;100.00;55844.97;5133432;27;20256;-73
2022/03/05 09:17:21;;;;;;;21.43;20.03;;;;;;;-141.02;100.00;55844.97;5133146;27;20245;-73
2022/03/05 09:19:48;;;;;;;24.13;22.17;;;;;;;-141.02;100.00;55844.97;5133143;27;20231;-73
2022/03/05 09:22:16;;;;;;;23.13;21.43;;;;;;;-141.02;100.00;55844.97;5133076;27;20623;-73
2022/03/05 09:24:43;;;;;;;24.27;22.60;;;;;;;-141.02;100.00;55844.97;5133090;27;20287;-73
2022/03/05 09:27:11;;;;;;;23.20;21.50;;;;;;;-141.02;100.00;55844.97;5133009;27;20700;-73
2022/03/05 09:29:39;;;;;;;21.10;19.70;;;;;;;-141.02;100.00;55844.97;5133886;27;20651;-73
2022/03/05 09:32:08;;;;;;;21.33;19.87;;;;;;;-141.02;100.00;55844.97;5133381;27;20269;-73
2022/03/05 09:34:35;;;;;;;22.60;20.77;;;;;;;-141.02;100.00;55844.97;5133282;27;20234;-73
2022/03/05 09:37:03;;;;;;;21.53;19.93;;;;;;;-141.02;100.00;55844.97;5132863;28;20653;-73
2022/03/05 09:39:32;;;;;;;21.27;19.80;;;;;;;-141.02;100.00;55844.97;5132893;28;20231;-73
2022/03/05 09:42:00;;;;;;;24.50;22.50;;;;;;;-141.02;100.00;55844.97;5133012;27;20200;-74
2022/03/05 09:44:27;;;;;;;20.93;19.63;;;;;;;-141.02;100.00;55844.97;5132895;28;20622;-73
2022/03/05 09:46:55;;;;;;;25.10;22.87;;;;;;;-141.02;100.00;55844.97;5132841;28;20192;-73
2022/03/05 09:49:27;;;;;;;19.80;18.70;;;;;;;-141.02;100.00;55844.97;5133102;28;20273;-73
2022/03/05 09:51:54;;;;;;;26.50;24.00;;;;;;;-141.02;100.00;55844.97;5133156;27;20181;-73
2022/03/05 09:54:21;;;;;;;21.63;20.13;;;;;;;-141.02;100.00;55844.97;5132996;28;20230;-74
2022/03/05 09:56:49;;;;;;;23.50;21.67;;;;;;;-141.02;100.00;55844.97;5133027;28;20227;-73
2022/03/05 09:59:16;;;;;;;22.73;21.00;;;;;;;-141.02;100.00;55844.97;5132743;28;20244;-73
2022/03/05 10:01:44;;;;;;;25.63;23.60;;;;;;;-141.02;100.00;55844.97;5132710;28;20756;-73
2022/03/05 10:04:21;;;;;;;21.27;19.97;;;;;;;-141.02;100.00;55844.97;5132723;28;20189;-73
2022/03/05 10:07:07;;;;;;;22.20;20.80;;;;;;;-141.02;100.00;55844.97;5133020;28;20191;-73
2022/03/05 10:09:34;;;;;;;36.27;29.07;;;;;;;-141.02;100.00;55844.97;5132628;28;20662;-73
2022/03/05 10:12:01;;;;;;;21.90;20.57;;;;;;;-141.02;100.00;55844.97;5132929;27;20193;-73
2022/03/05 10:14:28;;;;;;;25.63;23.47;;;;;;;-141.02;100.00;55844.97;5132533;28;20259;-73
2022/03/05 10:17:01;;;;;;;20.37;19.27;;;;;;;-141.02;100.00;55844.97;5132908;27;20241;-73
2022/03/05 10:19:29;;;;;;;22.30;20.90;;;;;;;-141.02;100.00;55844.97;5132916;28;20185;-74
2022/03/05 10:21:58;;;;;;;21.03;19.73;;;;;;;-141.02;100.00;55844.97;5132865;28;20192;-73
2022/03/05 10:24:32;;;;;;;24.63;22.93;;;;;;;-141.02;100.00;55844.97;5132905;28;20575;-74
2022/03/05 10:27:00;;;;;;;21.83;20.13;;;;;;;-141.02;100.00;55844.97;5132575;28;20280;-74
2022/03/05 10:29:29;;;;;;;20.80;19.43;;;;;;;-141.02;100.00;55844.97;5132867;27;20197;-74
2022/03/05 10:32:01;;;;;;;21.43;19.93;;;;;;;-141.02;100.00;55844.97;5136687;27;20193;-74
2022/03/05 10:34:51;;;;;;;19.47;18.27;;;;;;;-141.02;100.00;55844.97;5136226;27;20246;-74
2022/03/05 10:37:18;;;;;;;24.07;22.33;;;;;;;-141.02;100.00;55844.97;5135922;27;20232;-74
2022/03/05 10:39:46;;;;;;;26.27;21.70;;;;;;;-141.02;100.00;55844.97;5136181;27;20192;-73
2022/03/05 10:42:17;;;;;;;23.83;21.90;;;;;;;-141.02;100.00;55844.97;5136155;27;20648;-73
2022/03/05 10:44:44;;;;;;;19.87;18.67;;;;;;;-141.02;100.00;55844.97;5136369;27;20574;-73
2022/03/05 10:47:11;;;;;;;24.90;22.73;;;;;;;-141.02;100.00;55844.97;5136353;27;20197;-74
2022/03/05 10:49:40;;;;;;;20.07;18.77;;;;;;;-141.02;100.00;55844.97;5136304;27;20188;-74
2022/03/05 10:52:10;;;;;;;21.43;19.50;;;;;;;-141.02;100.00;55844.97;5136277;27;20280;-73
2022/03/05 10:54:39;;;;;;;28.03;24.23;;;;;;;-141.02;100.00;55844.97;5135785;27;20264;-74
2022/03/05 10:57:11;;;;;;;22.33;20.33;;;;;;;-141.02;100.00;55844.97;5136205;27;20257;-74
2022/03/05 10:59:40;;;;;;;25.87;23.63;;;;;;;-141.02;100.00;55844.97;5135734;27;20201;-73
2022/03/05 11:02:08;;;;;;;22.27;20.60;;;;;;;-141.02;100.00;55844.97;5135742;27;20654;-73